Time;durP1;ratioP1;P1;durP2;ratioP2;P2;SDS_P1;SDS_P2;PMS_P1;PMS_P2;Temp;Humidity;BMP_temperature;BMP_pressure;BME280_temperature;BME280_humidity;BME280_pressure;Samples;Min_cycle;Max_cycle;Signal;HPM_P1;HPM_P2
2022/11/22 00:02:14;;;;;;;0.20;0.10;;;;;;;;;;5033809;28;20427;-81
2022/11/22 00:04:40;;;;;;;0.20;0.10;;;;;;;;;;5015208;28;20394;-81
2022/11/22 00:07:07;;;;;;;0.20;0.10;;;;;;;;;;5028136;28;21290;-81
2022/11/22 00:09:33;;;;;;;0.20;0.10;;;;;;;;;;5028380;28;20043;-82
2022/11/22 00:11:59;;;;;;;0.20;0.10;;;;;;;;;;5017281;28;20037;-83
2022/11/22 00:14:25;;;;;;;0.20;0.10;;;;;;;;;;5032076;28;20056;-81
2022/11/22 00:16:51;;;;;;;0.20;0.10;;;;;;;;;;5044818;28;20037;-81
2022/11/22 00:19:17;;;;;;;0.20;0.10;;;;;;;;;;5027725;28;20049;-79
2022/11/22 00:21:43;;;;;;;0.20;0.10;;;;;;;;;;5042777;28;20033;-83
2022/11/22 00:24:12;;;;;;;0.20;0.10;;;;;;;;;;5044258;22;20045;-83
2022/11/22 00:26:38;;;;;;;0.20;0.10;;;;;;;;;;5001344;28;20508;-83
2022/11/22 00:29:04;;;;;;;0.20;0.10;;;;;;;;;;4985691;28;20046;-83
2022/11/22 00:31:30;;;;;;;0.20;0.10;;;;;;;;;;5004951;28;20037;-82
2022/11/22 00:33:56;;;;;;;0.20;0.10;;;;;;;;;;4965385;28;20082;-85
2022/11/22 00:36:23;;;;;;;0.20;0.10;;;;;;;;;;4970285;28;20038;-85
2022/11/22 00:38:49;;;;;;;0.20;0.10;;;;;;;;;;4972499;28;20046;-85
2022/11/22 00:41:15;;;;;;;0.20;0.10;;;;;;;;;;4969083;28;20136;-86
2022/11/22 00:43:41;;;;;;;0.20;0.10;;;;;;;;;;4970580;28;20557;-86
2022/11/22 00:46:07;;;;;;;0.20;0.10;;;;;;;;;;4986005;28;20101;-85
2022/11/22 00:48:33;;;;;;;0.20;0.15;;;;;;;;;;4970502;28;20046;-84
2022/11/22 00:50:59;;;;;;;0.20;0.10;;;;;;;;;;4972316;28;20612;-83
2022/11/22 00:53:25;;;;;;;0.20;0.10;;;;;;;;;;4985434;28;20439;-85
2022/11/22 00:55:51;;;;;;;0.20;0.10;;;;;;;;;;4968649;28;20053;-85
2022/11/22 00:58:17;;;;;;;0.20;0.10;;;;;;;;;;4970430;28;20191;-85
2022/11/22 01:00:43;;;;;;;0.20;0.10;;;;;;;;;;4969204;28;20184;-84
2022/11/22 01:03:10;;;;;;;0.20;0.10;;;;;;;;;;4983265;28;20042;-86
2022/11/22 01:05:36;;;;;;;0.20;0.10;;;;;;;;;;4969100;28;20048;-85
2022/11/22 01:08:02;;;;;;;0.20;0.10;;;;;;;;;;4967514;28;20066;-87
2022/11/22 01:10:28;;;;;;;0.20;0.10;;;;;;;;;;4982714;28;20404;-85
2022/11/22 01:12:56;;;;;;;0.20;0.10;;;;;;;;;;4983157;28;20519;-85
2022/11/22 01:15:22;;;;;;;0.20;0.10;;;;;;;;;;4968386;28;20105;-86
2022/11/22 01:17:48;;;;;;;0.20;0.10;;;;;;;;;;4966618;28;20049;-86
2022/11/22 01:20:14;;;;;;;0.20;0.10;;;;;;;;;;4969312;28;20041;-86
2022/11/22 01:22:40;;;;;;;0.20;0.10;;;;;;;;;;4964287;28;20421;-86
2022/11/22 01:25:07;;;;;;;0.20;0.10;;;;;;;;;;4982249;28;20415;-86
2022/11/22 01:27:33;;;;;;;0.20;0.10;;;;;;;;;;4980711;28;20537;-87
2022/11/22 01:29:59;;;;;;;0.20;0.10;;;;;;;;;;4984617;28;20382;-87
2022/11/22 01:32:25;;;;;;;0.20;0.10;;;;;;;;;;4967313;28;20042;-86
2022/11/22 01:34:51;;;;;;;0.20;0.10;;;;;;;;;;4945606;28;20042;-86
2022/11/22 01:37:17;;;;;;;0.20;0.10;;;;;;;;;;4946100;28;20050;-86
2022/11/22 01:39:43;;;;;;;0.20;0.10;;;;;;;;;;4965488;28;20035;-85
2022/11/22 01:42:10;;;;;;;0.20;0.10;;;;;;;;;;4981578;28;20038;-86
2022/11/22 01:44:39;;;;;;;0.20;0.10;;;;;;;;;;4984565;28;20046;-85
2022/11/22 01:47:10;;;;;;;0.40;0.40;;;;;;;;;;4984157;28;20038;-86
2022/11/22 01:49:39;;;;;;;0.20;0.10;;;;;;;;;;4980573;28;20173;-85
2022/11/22 01:52:07;;;;;;;0.20;0.10;;;;;;;;;;4961862;28;20057;-86
2022/11/22 01:54:35;;;;;;;0.20;0.10;;;;;;;;;;4970141;28;20038;-85
2022/11/22 01:57:06;;;;;;;0.20;0.10;;;;;;;;;;4967654;28;20517;-85
2022/11/22 01:59:33;;;;;;;0.20;0.10;;;;;;;;;;4983049;28;20031;-85
2022/11/22 02:02:00;;;;;;;0.20;0.10;;;;;;;;;;4983425;28;20042;-87
2022/11/22 02:04:27;;;;;;;0.20;0.10;;;;;;;;;;4966892;28;20153;-86
2022/11/22 02:06:53;;;;;;;0.20;0.13;;;;;;;;;;4967098;28;20050;-84
2022/11/22 02:09:20;;;;;;;0.20;0.10;;;;;;;;;;4969887;28;20532;-86
2022/11/22 02:11:48;;;;;;;0.20;0.10;;;;;;;;;;4965410;28;20073;-86
2022/11/22 02:14:15;;;;;;;0.20;0.10;;;;;;;;;;4984020;28;20038;-85
2022/11/22 02:16:41;;;;;;;0.20;0.10;;;;;;;;;;4965788;28;20111;-85
2022/11/22 02:19:11;;;;;;;0.20;0.10;;;;;;;;;;4984411;28;20034;-87
2022/11/22 02:21:37;;;;;;;0.20;0.10;;;;;;;;;;4962818;28;20133;-85
2022/11/22 02:24:04;;;;;;;0.20;0.10;;;;;;;;;;4953964;28;20046;-85
2022/11/22 02:26:30;;;;;;;0.20;0.10;;;;;;;;;;4981661;28;20048;-86
2022/11/22 02:29:00;;;;;;;0.20;0.10;;;;;;;;;;4968629;28;20061;-86
2022/11/22 02:31:34;;;;;;;0.20;0.10;;;;;;;;;;4982914;28;20050;-84
2022/11/22 02:34:00;;;;;;;0.20;0.10;;;;;;;;;;4984663;28;20181;-85
2022/11/22 02:36:26;;;;;;;0.20;0.10;;;;;;;;;;4951185;28;20042;-84
2022/11/22 02:38:52;;;;;;;0.20;0.10;;;;;;;;;;4952244;28;20042;-84
2022/11/22 02:41:19;;;;;;;0.20;0.10;;;;;;;;;;4985080;28;20129;-86
2022/11/22 02:43:46;;;;;;;0.20;0.10;;;;;;;;;;4967537;28;20072;-84
2022/11/22 02:46:19;;;;;;;0.20;0.10;;;;;;;;;;4967189;28;20046;-86
2022/11/22 02:48:45;;;;;;;0.20;0.10;;;;;;;;;;4965395;28;20050;-86
2022/11/22 02:51:15;;;;;;;0.20;0.10;;;;;;;;;;4965909;28;20046;-85
2022/11/22 02:53:48;;;;;;;0.52;0.40;;;;;;;;;;4969602;28;20590;-86
2022/11/22 02:56:14;;;;;;;0.20;0.10;;;;;;;;;;4971619;28;20560;-86
2022/11/22 02:58:40;;;;;;;0.20;0.15;;;;;;;;;;4969657;28;20116;-86
2022/11/22 03:01:06;;;;;;;0.20;0.10;;;;;;;;;;4954640;28;20038;-85
2022/11/22 03:03:33;;;;;;;0.20;0.10;;;;;;;;;;4958497;28;20050;-84
2022/11/22 03:06:01;;;;;;;0.20;0.10;;;;;;;;;;4958976;28;20056;-85
2022/11/22 03:08:27;;;;;;;0.20;0.10;;;;;;;;;;4993256;28;20063;-85
2022/11/22 03:10:53;;;;;;;0.20;0.10;;;;;;;;;;4975930;28;20046;-85
2022/11/22 03:13:19;;;;;;;0.20;0.10;;;;;;;;;;4972067;28;20030;-84
2022/11/22 03:15:48;;;;;;;0.20;0.10;;;;;;;;;;4987005;28;20093;-86
2022/11/22 03:18:14;;;;;;;0.20;0.10;;;;;;;;;;4953594;28;20040;-86
2022/11/22 03:20:40;;;;;;;0.20;0.10;;;;;;;;;;4971302;28;20046;-85
2022/11/22 03:23:06;;;;;;;0.20;0.10;;;;;;;;;;4986900;28;20152;-84
2022/11/22 03:25:32;;;;;;;0.20;0.10;;;;;;;;;;4955447;28;20038;-85
2022/11/22 03:27:58;;;;;;;0.20;0.10;;;;;;;;;;4974546;28;20130;-86
2022/11/22 03:30:25;;;;;;;0.20;0.10;;;;;;;;;;4952493;28;20042;-85
2022/11/22 03:32:51;;;;;;;0.20;0.10;;;;;;;;;;4973771;28;20042;-84
2022/11/22 03:35:17;;;;;;;0.20;0.10;;;;;;;;;;4973443;28;20362;-85
2022/11/22 03:37:43;;;;;;;0.20;0.10;;;;;;;;;;4986084;28;20092;-85
2022/11/22 03:40:09;;;;;;;0.20;0.10;;;;;;;;;;4956344;28;20050;-85
2022/11/22 03:42:35;;;;;;;0.20;0.10;;;;;;;;;;4987902;28;20471;-84
2022/11/22 03:45:01;;;;;;;0.20;0.10;;;;;;;;;;4986490;28;20452;-84
2022/11/22 03:47:27;;;;;;;0.20;0.10;;;;;;;;;;4986879;28;20050;-85
2022/11/22 03:49:54;;;;;;;0.20;0.10;;;;;;;;;;4987266;28;20042;-86
2022/11/22 03:52:20;;;;;;;0.20;0.10;;;;;;;;;;4988098;28;20042;-85
2022/11/22 03:54:46;;;;;;;0.20;0.10;;;;;;;;;;4968746;28;20400;-86
2022/11/22 03:57:12;;;;;;;0.85;0.85;;;;;;;;;;4973743;28;20556;-85
2022/11/22 03:59:38;;;;;;;0.20;0.10;;;;;;;;;;4971625;28;20046;-85
2022/11/22 04:02:04;;;;;;;0.20;0.10;;;;;;;;;;4970627;28;20047;-85
2022/11/22 04:04:30;;;;;;;0.20;0.10;;;;;;;;;;4987341;28;20073;-85
2022/11/22 04:06:56;;;;;;;0.20;0.10;;;;;;;;;;4987742;28;20047;-84
2022/11/22 04:09:22;;;;;;;0.20;0.10;;;;;;;;;;4953144;28;20130;-85
2022/11/22 04:11:48;;;;;;;0.20;0.10;;;;;;;;;;4970138;28;20042;-86
2022/11/22 04:16:59;;;;;;;0.20;0.10;;;;;;;;;;4985942;28;20409;-85
2022/11/22 04:19:25;;;;;;;0.20;0.10;;;;;;;;;;4985736;28;20089;-87
2022/11/22 04:21:51;;;;;;;0.20;0.10;;;;;;;;;;4987199;28;20663;-84
2022/11/22 04:27:01;;;;;;;0.20;0.10;;;;;;;;;;4987629;28;21449;-85
2022/11/22 04:29:28;;;;;;;0.20;0.10;;;;;;;;;;4968749;28;20045;-85
2022/11/22 04:34:38;;;;;;;0.20;0.10;;;;;;;;;;4971825;28;20054;-86
2022/11/22 04:37:05;;;;;;;0.20;0.10;;;;;;;;;;4967325;28;20530;-87
2022/11/22 04:39:31;;;;;;;0.20;0.10;;;;;;;;;;4983779;28;20073;-87
2022/11/22 04:44:42;;;;;;;0.20;0.10;;;;;;;;;;4988371;28;20046;-87
2022/11/22 04:47:09;;;;;;;0.20;0.10;;;;;;;;;;4971958;28;20038;-85
2022/11/22 04:49:35;;;;;;;0.20;0.10;;;;;;;;;;4954719;28;20053;-84
2022/11/22 04:54:46;;;;;;;0.20;0.10;;;;;;;;;;4970020;28;20054;-86
2022/11/22 04:57:12;;;;;;;0.20;0.10;;;;;;;;;;4964574;28;20038;-85
2022/11/22 04:59:38;;;;;;;0.20;0.10;;;;;;;;;;4985031;28;20117;-87
2022/11/22 05:02:04;;;;;;;0.20;0.10;;;;;;;;;;4963868;28;20165;-85
2022/11/22 05:04:30;;;;;;;0.20;0.10;;;;;;;;;;4998365;28;20069;-87
2022/11/22 05:06:56;;;;;;;0.20;0.10;;;;;;;;;;4952480;28;20053;-87
2022/11/22 05:09:23;;;;;;;0.20;0.10;;;;;;;;;;4949280;28;20038;-87
2022/11/22 05:11:49;;;;;;;0.20;0.10;;;;;;;;;;4978836;28;20038;-86
2022/11/22 05:14:15;;;;;;;0.20;0.10;;;;;;;;;;4949807;28;20046;-85
2022/11/22 05:16:41;;;;;;;0.20;0.10;;;;;;;;;;4966625;28;20496;-85
2022/11/22 05:19:07;;;;;;;0.20;0.10;;;;;;;;;;4966549;28;20096;-86
2022/11/22 05:21:36;;;;;;;0.20;0.10;;;;;;;;;;4965441;28;20031;-84
2022/11/22 05:24:03;;;;;;;0.20;0.10;;;;;;;;;;4964226;28;20117;-86
2022/11/22 05:26:31;;;;;;;0.20;0.10;;;;;;;;;;4967571;28;20519;-86
2022/11/22 05:28:58;;;;;;;0.20;0.10;;;;;;;;;;4978186;28;20500;-87
2022/11/22 05:31:26;;;;;;;0.20;0.10;;;;;;;;;;4976190;28;20122;-88
2022/11/22 05:33:52;;;;;;;0.20;0.10;;;;;;;;;;4942948;28;20048;-85
2022/11/22 05:36:19;;;;;;;0.20;0.10;;;;;;;;;;4946044;28;20046;-88
2022/11/22 05:38:45;;;;;;;0.20;0.10;;;;;;;;;;4949815;28;20481;-88
2022/11/22 05:41:11;;;;;;;0.20;0.10;;;;;;;;;;4963913;28;20031;-88
2022/11/22 05:43:38;;;;;;;0.20;0.10;;;;;;;;;;4960839;28;20540;-86
2022/11/22 05:46:10;;;;;;;0.20;0.10;;;;;;;;;;4980232;28;20070;-87
2022/11/22 05:48:36;;;;;;;0.20;0.10;;;;;;;;;;4963221;28;20042;-88
2022/11/22 05:51:03;;;;;;;0.90;0.90;;;;;;;;;;4967995;28;20035;-87
2022/11/22 05:53:29;;;;;;;0.20;0.10;;;;;;;;;;4950691;28;20381;-87
2022/11/22 05:55:55;;;;;;;0.20;0.10;;;;;;;;;;4965632;28;20042;-87
2022/11/22 05:58:21;;;;;;;0.20;0.10;;;;;;;;;;4965328;28;20159;-87
2022/11/22 06:00:47;;;;;;;0.20;0.10;;;;;;;;;;4951106;28;20042;-86
2022/11/22 06:03:13;;;;;;;0.20;0.10;;;;;;;;;;4970404;28;20254;-87
2022/11/22 06:05:39;;;;;;;0.30;0.30;;;;;;;;;;4967356;28;20039;-85
2022/11/22 06:08:05;;;;;;;0.20;0.10;;;;;;;;;;4949675;28;20043;-85
2022/11/22 06:10:36;;;;;;;0.20;0.10;;;;;;;;;;4964527;28;20045;-86
2022/11/22 06:13:02;;;;;;;0.20;0.10;;;;;;;;;;4965146;28;20046;-84
2022/11/22 06:15:29;;;;;;;0.20;0.10;;;;;;;;;;4983821;28;20157;-85
2022/11/22 06:17:55;;;;;;;0.20;0.10;;;;;;;;;;4982682;28;20039;-85
2022/11/22 06:20:21;;;;;;;0.20;0.10;;;;;;;;;;4980317;28;20077;-84
2022/11/22 06:22:47;;;;;;;1.25;0.60;;;;;;;;;;4980722;28;20104;-85
2022/11/22 06:25:13;;;;;;;0.20;0.10;;;;;;;;;;5001294;23;20053;-78
2022/11/22 06:27:39;;;;;;;0.20;0.10;;;;;;;;;;5024473;28;20070;-81
2022/11/22 06:30:06;;;;;;;0.20;0.10;;;;;;;;;;5023822;28;20112;-79
2022/11/22 06:32:32;;;;;;;0.20;0.10;;;;;;;;;;5028905;28;20037;-78
2022/11/22 06:34:59;;;;;;;0.20;0.10;;;;;;;;;;5042349;28;20036;-78
2022/11/22 06:37:25;;;;;;;0.20;0.10;;;;;;;;;;5050759;28;20049;-78
2022/11/22 06:39:51;;;;;;;0.20;0.10;;;;;;;;;;5073943;28;20041;-79
2022/11/22 06:42:17;;;;;;;0.20;0.10;;;;;;;;;;5051694;28;20029;-78
2022/11/22 06:44:43;;;;;;;0.20;0.10;;;;;;;;;;5048689;28;20041;-78
2022/11/22 06:47:09;;;;;;;0.20;0.10;;;;;;;;;;5051035;28;20045;-78
2022/11/22 06:49:36;;;;;;;0.20;0.10;;;;;;;;;;5046331;28;20041;-78
2022/11/22 06:52:02;;;;;;;0.20;0.10;;;;;;;;;;5050051;28;20487;-78
2022/11/22 06:54:28;;;;;;;0.20;0.10;;;;;;;;;;5050210;28;20065;-78
2022/11/22 06:56:54;;;;;;;0.20;0.10;;;;;;;;;;5049735;28;20037;-78
2022/11/22 06:59:20;;;;;;;0.20;0.10;;;;;;;;;;5048987;28;20047;-78
2022/11/22 07:01:46;;;;;;;0.20;0.10;;;;;;;;;;5033845;28;20072;-79
2022/11/22 07:04:12;;;;;;;0.20;0.10;;;;;;;;;;5049942;28;20502;-78
2022/11/22 07:06:38;;;;;;;0.40;0.30;;;;;;;;;;5034608;28;20124;-77
2022/11/22 07:09:06;;;;;;;0.20;0.10;;;;;;;;;;5030450;28;20551;-79
2022/11/22 07:11:33;;;;;;;0.20;0.10;;;;;;;;;;5044598;28;20558;-78
2022/11/22 07:14:00;;;;;;;0.20;0.10;;;;;;;;;;5033453;28;20041;-78
2022/11/22 07:16:26;;;;;;;0.20;0.10;;;;;;;;;;5033830;28;20056;-79
2022/11/22 07:18:53;;;;;;;0.20;0.10;;;;;;;;;;5046174;28;20033;-77
2022/11/22 07:21:23;;;;;;;0.20;0.10;;;;;;;;;;5046178;28;20051;-79
2022/11/22 07:23:50;;;;;;;0.20;0.10;;;;;;;;;;5030970;28;20227;-78
2022/11/22 07:26:17;;;;;;;0.20;0.10;;;;;;;;;;5047900;28;20037;-79
2022/11/22 07:28:43;;;;;;;0.20;0.10;;;;;;;;;;5062285;28;20046;-81
2022/11/22 07:31:10;;;;;;;0.20;0.10;;;;;;;;;;5043735;28;20095;-79
2022/11/22 07:33:36;;;;;;;0.20;0.10;;;;;;;;;;5040960;28;20044;-78
2022/11/22 07:36:04;;;;;;;0.20;0.10;;;;;;;;;;5023057;28;20047;-77
2022/11/22 07:38:30;;;;;;;0.20;0.10;;;;;;;;;;5040790;28;20036;-81
2022/11/22 07:40:56;;;;;;;0.20;0.10;;;;;;;;;;5023211;28;20037;-78
2022/11/22 07:43:22;;;;;;;0.20;0.10;;;;;;;;;;5025308;28;20155;-80
2022/11/22 07:45:48;;;;;;;0.20;0.10;;;;;;;;;;5056628;28;20053;-78
2022/11/22 07:48:14;;;;;;;0.20;0.10;;;;;;;;;;5029939;28;20131;-81
2022/11/22 07:50:43;;;;;;;0.20;0.10;;;;;;;;;;5057074;28;20038;-80
2022/11/22 07:53:09;;;;;;;0.20;0.10;;;;;;;;;;5041355;28;20050;-79
2022/11/22 07:55:36;;;;;;;0.20;0.10;;;;;;;;;;5041913;28;20678;-79
2022/11/22 07:58:02;;;;;;;0.20;0.10;;;;;;;;;;5028444;28;20045;-78
2022/11/22 08:00:28;;;;;;;0.20;0.20;;;;;;;;;;5041451;28;20112;-83
2022/11/22 08:02:54;;;;;;;0.20;0.10;;;;;;;;;;5044130;28;20269;-78
2022/11/22 08:05:21;;;;;;;0.20;0.10;;;;;;;;;;5037590;28;20044;-81
2022/11/22 08:07:51;;;;;;;0.20;0.10;;;;;;;;;;5040643;28;20084;-78
2022/11/22 08:10:17;;;;;;;0.20;0.10;;;;;;;;;;5043493;28;20103;-78
2022/11/22 08:12:44;;;;;;;0.55;0.55;;;;;;;;;;5041375;28;20077;-79
2022/11/22 08:15:11;;;;;;;0.20;0.10;;;;;;;;;;5037350;28;20279;-80
2022/11/22 08:17:37;;;;;;;0.20;0.10;;;;;;;;;;5041017;28;20082;-81
2022/11/22 08:20:04;;;;;;;0.20;0.10;;;;;;;;;;5059583;28;20448;-81
2022/11/22 08:22:30;;;;;;;0.20;0.10;;;;;;;;;;5027848;28;20041;-80
2022/11/22 08:24:56;;;;;;;0.40;0.38;;;;;;;;;;5028730;28;20034;-79
2022/11/22 08:27:22;;;;;;;0.20;0.10;;;;;;;;;;5027579;28;20075;-80
2022/11/22 08:29:48;;;;;;;0.20;0.10;;;;;;;;;;5021202;28;20062;-78
2022/11/22 08:32:14;;;;;;;0.20;0.10;;;;;;;;;;5057852;28;20036;-80
2022/11/22 08:34:40;;;;;;;0.20;0.10;;;;;;;;;;5040852;28;20121;-79
2022/11/22 08:37:06;;;;;;;0.20;0.13;;;;;;;;;;5036561;28;20551;-79
2022/11/22 08:39:32;;;;;;;0.20;0.10;;;;;;;;;;5056322;28;22254;-80
2022/11/22 08:41:58;;;;;;;0.20;0.10;;;;;;;;;;5031908;28;20645;-79
2022/11/22 08:44:24;;;;;;;0.20;0.10;;;;;;;;;;5028721;28;20037;-78
2022/11/22 08:46:50;;;;;;;0.20;0.10;;;;;;;;;;5010294;28;20102;-78
2022/11/22 08:49:26;;;;;;;0.20;0.10;;;;;;;;;;5025402;28;20063;-81
2022/11/22 08:51:52;;;;;;;0.20;0.10;;;;;;;;;;5059215;28;20048;-78
2022/11/22 08:54:18;;;;;;;0.20;0.10;;;;;;;;;;5038313;28;20125;-80
2022/11/22 08:56:44;;;;;;;0.20;0.10;;;;;;;;;;5042645;28;20167;-76
2022/11/22 08:59:10;;;;;;;0.20;0.10;;;;;;;;;;5030237;28;20052;-78
2022/11/22 09:01:36;;;;;;;0.20;0.10;;;;;;;;;;5040902;28;20037;-80
2022/11/22 09:04:02;;;;;;;0.20;0.10;;;;;;;;;;5041291;28;20041;-79
2022/11/22 09:06:28;;;;;;;0.20;0.10;;;;;;;;;;5026528;28;20036;-80
2022/11/22 09:08:54;;;;;;;0.20;0.10;;;;;;;;;;5057571;28;20407;-78
2022/11/22 09:11:20;;;;;;;0.20;0.10;;;;;;;;;;5041556;28;20041;-80
2022/11/22 09:13:46;;;;;;;0.20;0.10;;;;;;;;;;5022330;28;20049;-76
2022/11/22 09:16:21;;;;;;;0.20;0.10;;;;;;;;;;5039824;28;20041;-79
2022/11/22 09:18:48;;;;;;;0.20;0.10;;;;;;;;;;5021146;28;20375;-79
2022/11/22 09:21:16;;;;;;;0.20;0.10;;;;;;;;;;5035918;28;20187;-81
2022/11/22 09:23:43;;;;;;;0.20;0.10;;;;;;;;;;5035291;28;20055;-80
2022/11/22 09:26:10;;;;;;;0.20;0.10;;;;;;;;;;5039298;28;20119;-78
2022/11/22 09:28:36;;;;;;;0.20;0.10;;;;;;;;;;5040900;28;20072;-79
2022/11/22 09:31:02;;;;;;;0.20;0.10;;;;;;;;;;5023424;28;20124;-80
2022/11/22 09:33:29;;;;;;;0.20;0.10;;;;;;;;;;5046257;28;21624;-79
2022/11/22 09:35:59;;;;;;;0.20;0.10;;;;;;;;;;5042680;28;20041;-79
2022/11/22 09:38:25;;;;;;;0.20;0.10;;;;;;;;;;5043789;28;20049;-79
2022/11/22 09:40:52;;;;;;;0.20;0.10;;;;;;;;;;5044835;28;20037;-78
2022/11/22 09:43:24;;;;;;;0.20;0.10;;;;;;;;;;5041020;28;20455;-78
2022/11/22 09:45:59;;;;;;;0.20;0.10;;;;;;;;;;5042521;28;20053;-79
2022/11/22 09:48:28;;;;;;;0.20;0.10;;;;;;;;;;5041086;28;20048;-78
2022/11/22 09:50:57;;;;;;;0.20;0.10;;;;;;;;;;5039370;28;20111;-80
2022/11/22 09:53:34;;;;;;;0.20;0.10;;;;;;;;;;5028319;28;20124;-78
2022/11/22 09:56:03;;;;;;;0.20;0.10;;;;;;;;;;5041568;28;20033;-79
2022/11/22 09:58:32;;;;;;;0.20;0.10;;;;;;;;;;5059252;28;21012;-78
2022/11/22 10:01:17;;;;;;;0.20;0.10;;;;;;;;;;5037096;28;20395;-78
2022/11/22 10:04:02;;;;;;;0.20;0.10;;;;;;;;;;5039049;28;20057;-80
2022/11/22 10:06:33;;;;;;;0.20;0.10;;;;;;;;;;5039853;28;20449;-78
2022/11/22 10:09:08;;;;;;;0.20;0.10;;;;;;;;;;5044430;28;20128;-79
2022/11/22 10:11:47;;;;;;;0.20;0.10;;;;;;;;;;5041981;28;20124;-78
2022/11/22 10:14:22;;;;;;;0.20;0.10;;;;;;;;;;5024211;28;20029;-79
2022/11/22 10:16:52;;;;;;;0.20;0.10;;;;;;;;;;5039871;28;20040;-80
2022/11/22 10:19:25;;;;;;;0.20;0.10;;;;;;;;;;5024573;28;20039;-78
2022/11/22 10:21:52;;;;;;;0.20;0.10;;;;;;;;;;5037456;28;20059;-78
2022/11/22 10:24:18;;;;;;;0.20;0.20;;;;;;;;;;5035656;28;22896;-81
2022/11/22 10:26:45;;;;;;;0.20;0.10;;;;;;;;;;5043522;28;20045;-78
2022/11/22 10:29:16;;;;;;;0.20;0.10;;;;;;;;;;5044707;28;20056;-79
2022/11/22 10:31:42;;;;;;;0.20;0.10;;;;;;;;;;5053422;28;20132;-78
2022/11/22 10:34:24;;;;;;;0.20;0.10;;;;;;;;;;5034460;28;20154;-78
2022/11/22 10:36:53;;;;;;;0.20;0.10;;;;;;;;;;5044399;28;20037;-79
2022/11/22 10:39:23;;;;;;;0.20;0.10;;;;;;;;;;5041250;28;20402;-79
2022/11/22 10:42:09;;;;;;;0.20;0.10;;;;;;;;;;5036015;28;20029;-79
2022/11/22 10:44:35;;;;;;;0.20;0.10;;;;;;;;;;5051118;28;20041;-79
2022/11/22 10:47:20;;;;;;;0.20;0.10;;;;;;;;;;5037491;28;20060;-79
2022/11/22 10:49:46;;;;;;;0.20;0.10;;;;;;;;;;5037710;28;20056;-80
2022/11/22 10:52:26;;;;;;;0.20;0.10;;;;;;;;;;5061438;28;20041;-78
2022/11/22 10:55:01;;;;;;;0.20;0.10;;;;;;;;;;5044421;28;20037;-79
2022/11/22 10:57:46;;;;;;;0.20;0.10;;;;;;;;;;5026403;28;20032;-78
2022/11/22 11:00:28;;;;;;;0.20;0.10;;;;;;;;;;5035722;28;20051;-78
2022/11/22 11:02:57;;;;;;;0.20;0.10;;;;;;;;;;5040269;28;20083;-79
2022/11/22 11:05:29;;;;;;;0.20;0.10;;;;;;;;;;5042390;28;20033;-80
2022/11/22 11:07:55;;;;;;;0.20;0.10;;;;;;;;;;5048546;28;20033;-78
2022/11/22 11:10:23;;;;;;;0.20;0.10;;;;;;;;;;5070552;28;20037;-79
2022/11/22 11:12:52;;;;;;;0.20;0.10;;;;;;;;;;5038987;28;20349;-79
2022/11/22 11:15:21;;;;;;;0.20;0.10;;;;;;;;;;5045497;28;20528;-79
2022/11/22 11:17:50;;;;;;;0.20;0.10;;;;;;;;;;5042387;28;20029;-78
2022/11/22 11:20:25;;;;;;;0.20;0.10;;;;;;;;;;5040955;28;20041;-80
2022/11/22 11:22:51;;;;;;;0.20;0.10;;;;;;;;;;5042496;28;20048;-78
2022/11/22 11:25:30;;;;;;;0.20;0.10;;;;;;;;;;5042810;28;20115;-82
2022/11/22 11:27:58;;;;;;;0.20;0.10;;;;;;;;;;5063925;28;20076;-78
2022/11/22 11:30:24;;;;;;;0.20;0.10;;;;;;;;;;5056953;28;20063;-79
2022/11/22 11:32:51;;;;;;;0.20;0.10;;;;;;;;;;5020202;28;20048;-78
2022/11/22 11:35:19;;;;;;;0.20;0.10;;;;;;;;;;5024641;28;20609;-79
2022/11/22 11:37:45;;;;;;;0.20;0.10;;;;;;;;;;5042950;28;20045;-79
2022/11/22 11:40:31;;;;;;;0.20;0.10;;;;;;;;;;5039772;28;20499;-79
2022/11/22 11:43:29;;;;;;;0.20;0.10;;;;;;;;;;5042576;28;20507;-79
2022/11/22 11:46:14;;;;;;;0.20;0.10;;;;;;;;;;4986522;28;20448;-80
2022/11/22 11:48:40;;;;;;;0.20;0.10;;;;;;;;;;5039895;28;20076;-79
2022/11/22 11:51:14;;;;;;;0.20;0.10;;;;;;;;;;5056334;28;20047;-79
2022/11/22 11:53:42;;;;;;;0.20;0.10;;;;;;;;;;5040668;28;20041;-80
2022/11/22 11:56:26;;;;;;;0.20;0.10;;;;;;;;;;5038795;28;20049;-79
2022/11/22 11:58:53;;;;;;;0.20;0.10;;;;;;;;;;5044673;28;20044;-80
2022/11/22 12:01:20;;;;;;;0.20;0.10;;;;;;;;;;5031064;28;20502;-78
2022/11/22 12:03:57;;;;;;;0.20;0.10;;;;;;;;;;5058497;28;20041;-81
2022/11/22 12:06:27;;;;;;;0.20;0.10;;;;;;;;;;5046545;28;20050;-80
2022/11/22 12:08:53;;;;;;;0.20;0.10;;;;;;;;;;5041693;28;20056;-80
2022/11/22 12:11:22;;;;;;;0.20;0.10;;;;;;;;;;5028866;28;20086;-80
2022/11/22 12:13:56;;;;;;;0.20;0.10;;;;;;;;;;5041019;28;20048;-80
2022/11/22 12:16:34;;;;;;;0.20;0.10;;;;;;;;;;5025227;28;20090;-79
2022/11/22 12:19:19;;;;;;;0.20;0.10;;;;;;;;;;5040835;28;20033;-79
2022/11/22 12:22:02;;;;;;;0.20;0.10;;;;;;;;;;5032292;28;20045;-79
2022/11/22 12:24:28;;;;;;;0.20;0.10;;;;;;;;;;5055892;22;20037;-85
2022/11/22 12:26:57;;;;;;;0.20;0.10;;;;;;;;;;4997034;28;20479;-85
2022/11/22 12:29:23;;;;;;;0.20;0.10;;;;;;;;;;4966564;28;20124;-85
2022/11/22 12:32:01;;;;;;;0.20;0.10;;;;;;;;;;4947519;28;20047;-86
2022/11/22 12:34:31;;;;;;;0.20;0.10;;;;;;;;;;4964306;28;20034;-86
2022/11/22 12:37:16;;;;;;;0.20;0.10;;;;;;;;;;4957512;28;20046;-86
2022/11/22 12:39:48;;;;;;;0.20;0.10;;;;;;;;;;4981374;28;20058;-86
2022/11/22 12:42:18;;;;;;;0.20;0.10;;;;;;;;;;4964192;28;20088;-86
2022/11/22 12:44:46;;;;;;;0.20;0.10;;;;;;;;;;4964103;28;20041;-86
2022/11/22 12:47:14;;;;;;;0.20;0.10;;;;;;;;;;4973460;28;20038;-87
2022/11/22 12:49:43;;;;;;;0.20;0.10;;;;;;;;;;4965288;28;20083;-86
2022/11/22 12:52:10;;;;;;;0.20;0.10;;;;;;;;;;4967157;28;21227;-86
2022/11/22 12:54:45;;;;;;;0.20;0.10;;;;;;;;;;4965893;28;20140;-86
2022/11/22 12:57:18;;;;;;;0.20;0.10;;;;;;;;;;4980884;28;20704;-86
2022/11/22 12:59:54;;;;;;;0.20;0.10;;;;;;;;;;4964803;28;20141;-85
2022/11/22 13:02:20;;;;;;;0.20;0.10;;;;;;;;;;4979127;28;20046;-86
2022/11/22 13:05:05;;;;;;;0.20;0.10;;;;;;;;;;4962578;28;20042;-86
2022/11/22 13:07:34;;;;;;;0.20;0.10;;;;;;;;;;4966653;28;20088;-86
2022/11/22 13:10:19;;;;;;;0.20;0.10;;;;;;;;;;4982988;28;20042;-86
2022/11/22 13:12:46;;;;;;;0.20;0.10;;;;;;;;;;4981040;28;20100;-86
2022/11/22 13:15:13;;;;;;;0.20;0.10;;;;;;;;;;4965341;28;20103;-86
2022/11/22 13:17:39;;;;;;;0.20;0.10;;;;;;;;;;4966421;28;20065;-86
2022/11/22 13:20:08;;;;;;;0.20;0.10;;;;;;;;;;4982900;28;20054;-85
2022/11/22 13:22:53;;;;;;;0.20;0.10;;;;;;;;;;4967302;28;20683;-86
2022/11/22 13:25:36;;;;;;;0.20;0.10;;;;;;;;;;4984046;28;21994;-86
2022/11/22 13:28:05;;;;;;;0.20;0.10;;;;;;;;;;4983504;28;20030;-86
2022/11/22 13:30:32;;;;;;;0.20;0.10;;;;;;;;;;4967587;28;20870;-86
2022/11/22 13:32:59;;;;;;;0.20;0.10;;;;;;;;;;4980332;28;20049;-85
2022/11/22 13:35:28;;;;;;;0.20;0.10;;;;;;;;;;4981050;28;20410;-86
2022/11/22 13:38:05;;;;;;;0.20;0.10;;;;;;;;;;4965569;28;20037;-86
2022/11/22 13:40:33;;;;;;;0.20;0.10;;;;;;;;;;4966811;28;20069;-86
2022/11/22 13:43:15;;;;;;;0.20;0.10;;;;;;;;;;4979775;28;20084;-86
2022/11/22 13:45:48;;;;;;;0.20;0.10;;;;;;;;;;4962672;28;20448;-86
2022/11/22 13:48:33;;;;;;;0.20;0.10;;;;;;;;;;4963237;28;20125;-85
2022/11/22 13:51:00;;;;;;;0.20;0.10;;;;;;;;;;4964676;28;20071;-86
2022/11/22 13:53:27;;;;;;;0.20;0.10;;;;;;;;;;4965230;28;20191;-86
2022/11/22 13:55:54;;;;;;;0.20;0.10;;;;;;;;;;4982111;28;20109;-87
2022/11/22 13:58:24;;;;;;;0.20;0.10;;;;;;;;;;4965016;28;20377;-85
2022/11/22 14:00:54;;;;;;;0.20;0.10;;;;;;;;;;4963400;28;20038;-86
2022/11/22 14:03:27;;;;;;;0.20;0.10;;;;;;;;;;4978159;28;20400;-86
2022/11/22 14:05:54;;;;;;;0.20;0.10;;;;;;;;;;4980100;28;20069;-86
2022/11/22 14:08:35;;;;;;;0.20;0.00;;;;;;;;;;4977625;28;20042;-87
2022/11/22 14:11:07;;;;;;;0.20;0.10;;;;;;;;;;4968409;28;20385;-86
2022/11/22 14:13:47;;;;;;;0.20;0.10;;;;;;;;;;4966491;28;20030;-86
2022/11/22 14:16:13;;;;;;;0.20;0.08;;;;;;;;;;4980546;28;20045;-86
2022/11/22 14:18:39;;;;;;;0.20;0.10;;;;;;;;;;4979591;28;20038;-86
2022/11/22 14:21:24;;;;;;;0.20;0.10;;;;;;;;;;4963226;28;20038;-86
2022/11/22 14:23:50;;;;;;;0.20;0.10;;;;;;;;;;4980754;28;20042;-86
2022/11/22 14:26:17;;;;;;;0.20;0.10;;;;;;;;;;4964982;28;20050;-86
2022/11/22 14:28:43;;;;;;;0.20;0.10;;;;;;;;;;4963940;28;20048;-86
2022/11/22 14:31:20;;;;;;;0.20;0.10;;;;;;;;;;4981802;28;20098;-86
2022/11/22 14:34:05;;;;;;;0.20;0.10;;;;;;;;;;4977732;28;20046;-87
2022/11/22 14:36:31;;;;;;;0.20;0.10;;;;;;;;;;4978184;28;20041;-86
2022/11/22 14:38:58;;;;;;;0.20;0.10;;;;;;;;;;4963617;28;20136;-86
2022/11/22 14:41:44;;;;;;;0.20;0.10;;;;;;;;;;4964264;28;20643;-87
2022/11/22 14:44:23;;;;;;;0.20;0.10;;;;;;;;;;4956271;28;20457;-86
2022/11/22 14:46:52;;;;;;;0.20;0.10;;;;;;;;;;4978228;28;20049;-86
2022/11/22 14:49:18;;;;;;;0.20;0.10;;;;;;;;;;4964033;28;20547;-86
2022/11/22 14:51:45;;;;;;;0.20;0.10;;;;;;;;;;4967101;28;20038;-85
2022/11/22 14:54:38;;;;;;;0.20;0.10;;;;;;;;;;4969574;28;20387;-85
2022/11/22 14:57:05;;;;;;;0.20;0.10;;;;;;;;;;4982285;28;20519;-86
2022/11/22 14:59:38;;;;;;;0.20;0.10;;;;;;;;;;4969680;28;20543;-86
2022/11/22 15:02:34;;;;;;;0.20;0.10;;;;;;;;;;4981263;28;20042;-86
2022/11/22 15:05:22;;;;;;;0.20;0.10;;;;;;;;;;4986560;28;20143;-86
2022/11/22 15:08:00;;;;;;;0.20;0.10;;;;;;;;;;4987826;28;20049;-86